Terminal Aerodrome Forecast
Issued by NWS Sterling, VA

Home | Current Version | Previous Version | Text Only | Print | Product List | Glossary On
Versions: 1 2 3 4 5 6 7 8 9 10 11 12 13 14 15 16
000
FTUS41 KLWX 020500
TAFMRB
TAF
KMRB 020539Z 0206/0306 19005KT P6SM SKC
     FM021400 26007KT P6SM FEW060 SCT090
     FM021800 23010KT P6SM BKN050 BKN150
     FM022000 24011G19KT P6SM VCTS BKN050CB
     FM030000 28007KT P6SM SCT070 SCT120=

USA.gov is the U.S. government's official web portal to all federal, state and local government web resources and services.